createdAt,value
2023-03-14T00:03:57.263Z,11.1
2023-03-14T00:09:33.314Z,11.13
2023-03-14T00:15:05.250Z,11.04
2023-03-14T00:20:36.627Z,11.15
2023-03-14T00:26:08.556Z,11.12
2023-03-14T00:31:40.130Z,11.25
2023-03-14T00:37:11.791Z,11.32
2023-03-14T00:42:43.525Z,11.41
2023-03-14T00:48:15.453Z,11.21
2023-03-14T00:53:47.138Z,11.14
2023-03-14T00:59:18.869Z,11.21
2023-03-14T01:04:50.442Z,11.4
2023-03-14T01:10:26.717Z,11.32
2023-03-14T01:15:58.285Z,11.28
2023-03-14T01:21:30.210Z,11.14
2023-03-14T01:27:01.698Z,11.31
2023-03-14T01:32:33.436Z,11.3
2023-03-14T01:38:05.149Z,11.26
2023-03-14T01:43:36.976Z,11.36
2023-03-14T01:49:08.846Z,11.4
2023-03-14T01:54:40.311Z,11.2
2023-03-14T02:00:12.030Z,11.14
2023-03-14T02:05:43.782Z,11.12
2023-03-14T02:11:19.872Z,10.93
2023-03-14T02:16:51.653Z,10.95
2023-03-14T02:22:23.489Z,10.85
2023-03-14T02:27:55.039Z,10.86
2023-03-14T02:33:26.949Z,10.87
2023-03-14T02:38:58.524Z,10.75
2023-03-14T02:44:30.260Z,10.88
2023-03-14T02:50:01.966Z,10.98
2023-03-14T02:55:33.660Z,10.87
2023-03-14T03:01:05.636Z,11.01
2023-03-14T03:06:37.154Z,10.96
2023-03-14T03:12:13.264Z,10.89
2023-03-14T03:17:45.279Z,10.97
2023-03-14T03:23:16.862Z,10.9
2023-03-14T03:28:48.447Z,10.99
2023-03-14T03:34:20.319Z,10.94
2023-03-14T03:39:52.054Z,11.03
2023-03-14T03:45:23.775Z,11.09
2023-03-14T03:50:55.362Z,11.06
2023-03-14T03:56:27.048Z,10.91
2023-03-14T04:01:58.801Z,11.04
2023-03-14T04:07:30.648Z,11.25
2023-03-14T04:13:06.636Z,11.0
2023-03-14T04:18:38.393Z,11.06
2023-03-14T04:24:10.076Z,10.93
2023-03-14T04:29:41.796Z,10.85
2023-03-14T04:35:13.502Z,10.84
2023-03-14T04:40:45.235Z,10.78
2023-03-14T04:46:17.186Z,10.94
2023-03-14T04:51:48.863Z,10.7
2023-03-14T04:57:20.406Z,10.62
2023-03-14T05:02:52.170Z,10.71
2023-03-14T05:08:24.345Z,10.86
2023-03-14T05:14:00.004Z,10.87
2023-03-14T05:19:32.247Z,10.83
2023-03-14T05:25:03.611Z,11.05
2023-03-14T05:30:35.941Z,10.6
2023-03-14T05:36:06.927Z,10.46
2023-03-14T05:41:38.623Z,10.69
2023-03-14T05:47:10.480Z,10.6
2023-03-14T05:52:42.047Z,10.59
2023-03-14T05:58:13.982Z,10.76
2023-03-14T06:03:45.549Z,10.92
2023-03-14T06:09:17.202Z,11.11
2023-03-14T06:14:53.450Z,10.82
2023-03-14T06:20:25.295Z,10.88
2023-03-14T06:25:57.199Z,10.82
2023-03-14T06:31:28.523Z,10.93
2023-03-14T06:37:00.245Z,10.81
2023-03-14T06:42:31.975Z,10.92
2023-03-14T06:48:03.843Z,11.02
2023-03-14T06:53:35.619Z,10.92
2023-03-14T06:59:07.179Z,11.35
2023-03-14T07:04:39.217Z,11.31
2023-03-14T07:10:10.579Z,11.36
2023-03-14T07:15:46.784Z,11.52
2023-03-14T07:21:18.720Z,11.44
2023-03-14T07:26:50.199Z,11.84
2023-03-14T07:32:22.164Z,12.0
2023-03-14T07:37:53.740Z,11.93
2023-03-14T07:43:25.549Z,12.12
2023-03-14T07:48:57.285Z,12.28
2023-03-14T07:54:29.063Z,12.63
2023-03-14T08:00:00.754Z,12.65
2023-03-14T08:05:32.441Z,12.85
2023-03-14T08:11:04.006Z,12.87
2023-03-14T08:16:40.228Z,13.2
2023-03-14T08:22:12.067Z,13.38
2023-03-14T08:27:43.549Z,13.14
2023-03-14T08:33:15.238Z,13.17
2023-03-14T08:38:47.053Z,13.28
2023-03-14T08:44:20.792Z,13.03
2023-03-14T08:49:50.535Z,13.3
2023-03-14T08:55:22.305Z,13.48
2023-03-14T09:00:53.926Z,13.18
2023-03-14T09:06:25.773Z,13.11
2023-03-14T09:11:57.294Z,13.02
2023-03-14T09:17:35.467Z,12.67
2023-03-14T09:23:07.171Z,12.72
2023-03-14T09:28:39.195Z,12.5
2023-03-14T09:34:10.642Z,12.6
2023-03-14T09:39:42.505Z,12.34
2023-03-14T09:45:14.079Z,12.28
2023-03-14T09:50:45.795Z,12.38
2023-03-14T09:56:17.519Z,12.56
2023-03-14T10:01:49.302Z,12.8
2023-03-14T10:07:21.112Z,13.11
2023-03-14T10:12:54.653Z,13.72
2023-03-14T10:18:29.270Z,13.53
2023-03-14T10:24:00.865Z,13.87
2023-03-14T10:29:32.432Z,13.67
2023-03-14T10:35:04.211Z,13.51
2023-03-14T10:40:35.832Z,13.38
2023-03-14T10:46:07.716Z,13.74
2023-03-14T10:51:39.438Z,13.58
2023-03-14T10:57:11.150Z,13.18
2023-03-14T11:02:43.104Z,12.79
2023-03-14T11:08:14.917Z,12.49
2023-03-14T11:13:46.303Z,12.32
2023-03-14T11:19:22.472Z,12.0
2023-03-14T11:24:54.236Z,11.76
2023-03-14T11:30:27.685Z,11.61
2023-03-14T11:35:57.745Z,11.42
2023-03-14T11:41:29.593Z,11.67
2023-03-14T11:47:01.108Z,11.65
2023-03-14T11:52:32.802Z,11.5
2023-03-14T11:58:04.480Z,11.39
2023-03-14T12:03:36.362Z,11.36
2023-03-14T12:09:07.977Z,11.65
2023-03-14T12:14:39.627Z,11.55
2023-03-14T12:20:24.704Z,11.59
2023-03-14T12:25:56.427Z,11.24
2023-03-14T12:31:28.061Z,10.93
2023-03-14T12:36:59.936Z,10.32
2023-03-14T12:42:42.430Z,9.7
2023-03-14T12:48:03.223Z,9.86
2023-03-14T12:53:35.044Z,10.67
2023-03-14T12:59:06.836Z,11.07
2023-03-14T13:04:39.983Z,11.38
2023-03-14T13:15:41.847Z,10.88
2023-03-14T13:21:20.427Z,10.24
2023-03-14T13:26:51.694Z,10.43
2023-03-14T13:32:23.473Z,9.78
2023-03-14T13:38:00.708Z,9.67
2023-03-14T13:43:26.962Z,9.61
2023-03-14T13:48:58.571Z,9.97
2023-03-14T13:54:30.223Z,10.15
2023-03-14T14:00:02.364Z,9.57
2023-03-14T14:05:33.731Z,9.39
2023-03-14T14:11:05.632Z,9.38
2023-03-14T14:16:37.243Z,9.27
2023-03-14T14:22:15.301Z,9.07
2023-03-14T14:27:47.112Z,9.2
2023-03-14T14:33:18.731Z,9.1
2023-03-14T14:38:50.756Z,9.0
2023-03-14T14:44:22.359Z,9.07
2023-03-14T14:49:54.197Z,9.28
2023-03-14T14:55:25.680Z,9.23
2023-03-14T15:00:57.423Z,9.21
2023-03-14T15:06:29.157Z,9.35
2023-03-14T15:12:01.246Z,9.75
2023-03-14T15:17:32.816Z,9.6
2023-03-14T15:23:08.740Z,9.49
2023-03-14T15:28:40.492Z,9.35
2023-03-14T15:34:12.195Z,9.36
2023-03-14T15:39:44.088Z,9.22
2023-03-14T15:45:15.880Z,9.33
2023-03-14T15:50:47.523Z,9.27
2023-03-14T15:56:19.063Z,9.56
2023-03-14T16:01:50.862Z,9.51
2023-03-14T16:07:22.584Z,9.4
2023-03-14T16:12:54.549Z,9.23
2023-03-14T16:18:25.972Z,9.17
2023-03-14T16:24:02.125Z,9.14
2023-03-14T16:29:34.170Z,9.16
2023-03-14T16:35:05.710Z,9.08
2023-03-14T16:40:37.500Z,9.05
2023-03-14T16:46:09.220Z,9.08
2023-03-14T16:51:40.957Z,9.02
2023-03-14T16:57:12.706Z,9.06
2023-03-14T17:02:44.272Z,8.37
2023-03-14T17:08:16.337Z,8.04
2023-03-14T17:13:47.754Z,8.07
2023-03-14T17:19:19.901Z,7.86
2023-03-14T17:24:55.590Z,7.87
2023-03-14T17:30:28.009Z,7.72
2023-03-14T17:35:59.068Z,7.6
2023-03-14T17:41:30.814Z,7.47
2023-03-14T17:47:02.714Z,7.55
2023-03-14T17:52:34.617Z,7.44
2023-03-14T17:58:06.204Z,7.45
2023-03-14T18:03:37.934Z,7.29
2023-03-14T18:09:09.597Z,6.61
2023-03-14T18:14:41.460Z,6.55
2023-03-14T18:20:13.122Z,6.4
2023-03-14T18:25:49.378Z,6.55
2023-03-14T18:31:20.985Z,6.93
2023-03-14T18:36:52.725Z,6.79
2023-03-14T18:42:24.448Z,6.86
2023-03-14T18:47:56.216Z,6.88
2023-03-14T18:53:27.817Z,6.86
2023-03-14T18:58:59.646Z,6.98
2023-03-14T19:04:31.234Z,6.87
2023-03-14T19:10:03.083Z,6.86
2023-03-14T19:15:34.691Z,6.98
2023-03-14T19:21:06.415Z,6.95
2023-03-14T19:26:42.542Z,6.93
2023-03-14T19:32:14.393Z,6.64
2023-03-14T19:37:46.077Z,6.73
2023-03-14T19:43:17.697Z,6.96
2023-03-14T19:48:49.413Z,6.98
2023-03-14T19:54:21.326Z,7.11
2023-03-14T19:59:53.200Z,6.94
2023-03-14T20:05:24.648Z,7.19
2023-03-14T20:10:56.533Z,7.18
2023-03-14T20:16:28.127Z,7.27
2023-03-14T20:22:01.560Z,7.44
2023-03-14T20:27:36.384Z,7.47
2023-03-14T20:33:07.733Z,7.62
2023-03-14T20:38:39.508Z,7.76
2023-03-14T20:44:11.376Z,7.58
2023-03-14T20:49:42.996Z,7.67
2023-03-14T20:55:14.921Z,7.57
2023-03-14T21:00:46.411Z,7.28
2023-03-14T21:06:18.166Z,7.08
2023-03-14T21:11:50.663Z,6.93
2023-03-14T21:17:21.946Z,6.84
2023-03-14T21:22:53.587Z,6.74
2023-03-14T21:28:31.973Z,6.64
2023-03-14T21:34:03.537Z,6.65
2023-03-14T21:39:35.441Z,6.69
2023-03-14T21:45:07.238Z,6.21
2023-03-14T21:50:38.720Z,5.99
2023-03-14T21:56:10.504Z,5.95
2023-03-14T22:01:42.325Z,5.97
2023-03-14T22:07:13.946Z,5.94
2023-03-14T22:12:45.609Z,5.81
2023-03-14T22:18:17.644Z,5.04
2023-03-14T22:23:49.119Z,4.2
2023-03-14T22:29:25.244Z,3.62
2023-03-14T22:34:57.236Z,3.46
2023-03-14T22:40:28.889Z,3.42
2023-03-14T22:46:00.487Z,3.28
2023-03-14T22:51:32.133Z,3.3
2023-03-14T22:57:04.285Z,3.22
2023-03-14T23:02:35.517Z,2.96
2023-03-14T23:08:07.519Z,2.86
2023-03-14T23:13:39.841Z,2.93
2023-03-14T23:19:11.107Z,2.63
2023-03-14T23:24:42.418Z,2.72
2023-03-14T23:30:18.778Z,2.92
2023-03-14T23:35:50.774Z,3.03
2023-03-14T23:41:22.170Z,2.77
2023-03-14T23:46:54.101Z,2.87
2023-03-14T23:52:25.756Z,3.08
2023-03-14T23:57:57.232Z,3.11
